sensor_id;sensor_type;location;lat;lon;timestamp;pressure;altitude;pressure_sealevel;temperature;humidity
22605;BME280;11469;49.024;8.246;2023-04-06T00:00:52;100722.22;;;-0.07;76.89
22605;BME280;11469;49.024;8.246;2023-04-06T00:03:18;100721.38;;;-0.08;77.23
22605;BME280;11469;49.024;8.246;2023-04-06T00:05:44;100714.78;;;-0.07;77.58
22605;BME280;11469;49.024;8.246;2023-04-06T00:08:09;100720.31;;;-0.12;78.15
22605;BME280;11469;49.024;8.246;2023-04-06T00:10:35;100720.31;;;-0.12;78.31
22605;BME280;11469;49.024;8.246;2023-04-06T00:13:00;100724.44;;;-0.14;78.51
22605;BME280;11469;49.024;8.246;2023-04-06T00:15:26;100725.81;;;-0.12;78.68
22605;BME280;11469;49.024;8.246;2023-04-06T00:17:52;100720.56;;;-0.08;78.49
22605;BME280;11469;49.024;8.246;2023-04-06T00:20:18;100721.38;;;-0.08;78.49
22605;BME280;11469;49.024;8.246;2023-04-06T00:22:44;100715.56;;;-0.01;78.41
22605;BME280;11469;49.024;8.246;2023-04-06T00:25:10;100710.63;;;-0.04;78.50
22605;BME280;11469;49.024;8.246;2023-04-06T00:27:37;100709.81;;;-0.05;78.55
22605;BME280;11469;49.024;8.246;2023-04-06T00:30:06;100709.25;;;-0.02;78.23
22605;BME280;11469;49.024;8.246;2023-04-06T00:32:31;100713.38;;;-0.04;78.48
22605;BME280;11469;49.024;8.246;2023-04-06T00:34:58;100706.53;;;-0.12;78.51
22605;BME280;11469;49.024;8.246;2023-04-06T00:37:24;100715.63;;;-0.11;78.67
22605;BME280;11469;49.024;8.246;2023-04-06T00:39:49;100712.91;;;-0.21;79.07
22605;BME280;11469;49.024;8.246;2023-04-06T00:42:17;100709.06;;;-0.25;79.20
22605;BME280;11469;49.024;8.246;2023-04-06T00:44:50;100712.13;;;-0.32;79.62
22605;BME280;11469;49.024;8.246;2023-04-06T00:47:16;100710.75;;;-0.35;79.91
22605;BME280;11469;49.024;8.246;2023-04-06T00:49:41;100700.00;;;-0.31;80.13
22605;BME280;11469;49.024;8.246;2023-04-06T00:52:06;100704.13;;;-0.28;80.03
22605;BME280;11469;49.024;8.246;2023-04-06T00:54:32;100696.69;;;-0.33;80.93
22605;BME280;11469;49.024;8.246;2023-04-06T00:56:58;100691.47;;;-0.29;80.41
22605;BME280;11469;49.024;8.246;2023-04-06T00:59:23;100696.16;;;-0.30;80.28
22605;BME280;11469;49.024;8.246;2023-04-06T01:01:49;100693.09;;;-0.28;80.32
22605;BME280;11469;49.024;8.246;2023-04-06T01:04:14;100692.81;;;-0.27;80.24
22605;BME280;11469;49.024;8.246;2023-04-06T01:06:40;100688.69;;;-0.24;80.48
22605;BME280;11469;49.024;8.246;2023-04-06T01:09:05;100695.28;;;-0.25;80.77
22605;BME280;11469;49.024;8.246;2023-04-06T01:11:31;100694.41;;;-0.11;80.42
22605;BME280;11469;49.024;8.246;2023-04-06T01:13:56;100693.59;;;-0.16;80.15
22605;BME280;11469;49.024;8.246;2023-04-06T01:16:22;100687.81;;;-0.15;80.56
22605;BME280;11469;49.024;8.246;2023-04-06T01:18:47;100690.81;;;-0.11;80.74
22605;BME280;11469;49.024;8.246;2023-04-06T01:21:12;100685.31;;;-0.11;80.73
22605;BME280;11469;49.024;8.246;2023-04-06T01:23:44;100682.59;;;-0.16;80.92
22605;BME280;11469;49.024;8.246;2023-04-06T01:26:11;100685.63;;;-0.18;80.92
22605;BME280;11469;49.024;8.246;2023-04-06T01:28:36;100680.97;;;-0.22;80.82
22605;BME280;11469;49.024;8.246;2023-04-06T01:31:03;100676.84;;;-0.30;81.29
22605;BME280;11469;49.024;8.246;2023-04-06T01:33:29;100672.22;;;-0.45;81.29
22605;BME280;11469;49.024;8.246;2023-04-06T01:35:55;100673.31;;;-0.41;81.63
22605;BME280;11469;49.024;8.246;2023-04-06T01:38:20;100672.50;;;-0.41;81.80
22605;BME280;11469;49.024;8.246;2023-04-06T01:40:46;100672.22;;;-0.40;82.04
22605;BME280;11469;49.024;8.246;2023-04-06T01:43:11;100672.22;;;-0.45;81.96
22605;BME280;11469;49.024;8.246;2023-04-06T01:45:36;100667.00;;;-0.46;82.29
22605;BME280;11469;49.024;8.246;2023-04-06T01:48:03;100665.13;;;-0.51;82.49
22605;BME280;11469;49.024;8.246;2023-04-06T01:50:29;100661.84;;;-0.53;82.87
22605;BME280;11469;49.024;8.246;2023-04-06T01:52:54;100668.44;;;-0.54;82.98
22605;BME280;11469;49.024;8.246;2023-04-06T01:55:20;100664.88;;;-0.54;83.12
22605;BME280;11469;49.024;8.246;2023-04-06T01:57:45;100665.16;;;-0.56;83.14
22605;BME280;11469;49.024;8.246;2023-04-06T02:00:11;100664.59;;;-0.58;83.48
22605;BME280;11469;49.024;8.246;2023-04-06T02:02:37;100665.44;;;-0.57;83.10
22605;BME280;11469;49.024;8.246;2023-04-06T02:05:02;100657.44;;;-0.59;83.24
22605;BME280;11469;49.024;8.246;2023-04-06T02:07:27;100664.06;;;-0.60;83.18
22605;BME280;11469;49.024;8.246;2023-04-06T02:09:54;100660.47;;;-0.60;83.24
22605;BME280;11469;49.024;8.246;2023-04-06T02:12:20;100661.31;;;-0.65;83.42
22605;BME280;11469;49.024;8.246;2023-04-06T02:14:46;100657.22;;;-0.68;83.38
22605;BME280;11469;49.024;8.246;2023-04-06T02:17:11;100666.00;;;-0.65;83.46
22605;BME280;11469;49.024;8.246;2023-04-06T02:19:36;100656.66;;;-0.70;83.20
22605;BME280;11469;49.024;8.246;2023-04-06T02:22:02;100658.88;;;-0.72;83.46
22605;BME280;11469;49.024;8.246;2023-04-06T02:24:27;100653.94;;;-0.80;83.94
22605;BME280;11469;49.024;8.246;2023-04-06T02:26:52;100649.03;;;-0.93;84.83
22605;BME280;11469;49.024;8.246;2023-04-06T02:29:18;100652.91;;;-0.99;85.05
22605;BME280;11469;49.024;8.246;2023-04-06T02:31:43;100660.91;;;-1.03;85.18
22605;BME280;11469;49.024;8.246;2023-04-06T02:34:08;100658.69;;;-1.06;85.31
22605;BME280;11469;49.024;8.246;2023-04-06T02:36:37;100654.31;;;-1.07;85.55
22605;BME280;11469;49.024;8.246;2023-04-06T02:39:02;100654.84;;;-1.10;86.14
22605;BME280;11469;49.024;8.246;2023-04-06T02:41:28;100651.00;;;-1.09;86.76
22605;BME280;11469;49.024;8.246;2023-04-06T02:43:54;100650.75;;;-1.12;87.55
22605;BME280;11469;49.024;8.246;2023-04-06T02:46:19;100652.13;;;-1.15;87.98
22605;BME280;11469;49.024;8.246;2023-04-06T02:48:45;100653.75;;;-1.14;88.60
22605;BME280;11469;49.024;8.246;2023-04-06T02:51:10;100651.84;;;-1.18;89.14
22605;BME280;11469;49.024;8.246;2023-04-06T02:53:36;100650.19;;;-1.19;89.08
22605;BME280;11469;49.024;8.246;2023-04-06T02:56:01;100662.03;;;-1.19;88.84
22605;BME280;11469;49.024;8.246;2023-04-06T02:58:26;100651.56;;;-1.17;88.63
22605;BME280;11469;49.024;8.246;2023-04-06T03:00:52;100654.88;;;-1.15;88.41
22605;BME280;11469;49.024;8.246;2023-04-06T03:03:17;100651.28;;;-1.15;88.49
22605;BME280;11469;49.024;8.246;2023-04-06T03:05:42;100646.88;;;-1.16;88.35
22605;BME280;11469;49.024;8.246;2023-04-06T03:08:08;100640.84;;;-1.18;88.34
22605;BME280;11469;49.024;8.246;2023-04-06T03:10:33;100648.81;;;-1.22;88.64
22605;BME280;11469;49.024;8.246;2023-04-06T03:12:58;100642.50;;;-1.27;89.44
22605;BME280;11469;49.024;8.246;2023-04-06T03:15:24;100633.72;;;-1.29;89.45
22605;BME280;11469;49.024;8.246;2023-04-06T03:17:49;100647.19;;;-1.28;89.40
22605;BME280;11469;49.024;8.246;2023-04-06T03:20:15;100651.56;;;-1.22;89.59
22605;BME280;11469;49.024;8.246;2023-04-06T03:22:40;100644.69;;;-1.19;89.19
22605;BME280;11469;49.024;8.246;2023-04-06T03:25:06;100641.41;;;-1.21;88.96
22605;BME280;11469;49.024;8.246;2023-04-06T03:27:31;100641.94;;;-1.24;89.17
22605;BME280;11469;49.024;8.246;2023-04-06T03:29:57;100643.31;;;-1.27;89.06
22605;BME280;11469;49.024;8.246;2023-04-06T03:32:23;100655.44;;;-1.28;89.35
22605;BME280;11469;49.024;8.246;2023-04-06T03:34:48;100645.81;;;-1.25;89.32
22605;BME280;11469;49.024;8.246;2023-04-06T03:37:15;100654.34;;;-1.32;89.50
22605;BME280;11469;49.024;8.246;2023-04-06T03:39:40;100652.97;;;-1.40;90.07
22605;BME280;11469;49.024;8.246;2023-04-06T03:42:06;100658.19;;;-1.38;90.20
22605;BME280;11469;49.024;8.246;2023-04-06T03:44:31;100659.84;;;-1.37;89.86
22605;BME280;11469;49.024;8.246;2023-04-06T03:46:57;100660.38;;;-1.35;90.21
22605;BME280;11469;49.024;8.246;2023-04-06T03:49:22;100655.72;;;-1.40;90.18
22605;BME280;11469;49.024;8.246;2023-04-06T03:51:47;100656.03;;;-1.46;90.15
22605;BME280;11469;49.024;8.246;2023-04-06T03:54:13;100665.38;;;-1.52;90.66
22605;BME280;11469;49.024;8.246;2023-04-06T03:56:38;100665.38;;;-1.57;91.21
22605;BME280;11469;49.024;8.246;2023-04-06T03:59:03;100667.00;;;-1.61;92.34
22605;BME280;11469;49.024;8.246;2023-04-06T04:01:29;100671.97;;;-1.63;92.46
22605;BME280;11469;49.024;8.246;2023-04-06T04:03:55;100675.53;;;-1.68;93.09
22605;BME280;11469;49.024;8.246;2023-04-06T04:06:20;100673.03;;;-1.75;93.60
22605;BME280;11469;49.024;8.246;2023-04-06T04:08:46;100675.25;;;-1.77;93.75
22605;BME280;11469;49.024;8.246;2023-04-06T04:11:11;100685.97;;;-1.75;93.65
22605;BME280;11469;49.024;8.246;2023-04-06T04:13:36;100685.13;;;-1.76;94.03
22605;BME280;11469;49.024;8.246;2023-04-06T04:16:02;100687.59;;;-1.79;94.52
22605;BME280;11469;49.024;8.246;2023-04-06T04:18:27;100692.53;;;-1.81;94.59
22605;BME280;11469;49.024;8.246;2023-04-06T04:20:53;100695.84;;;-1.79;94.96
22605;BME280;11469;49.024;8.246;2023-04-06T04:23:18;100685.13;;;-1.76;95.04
22605;BME280;11469;49.024;8.246;2023-04-06T04:25:43;100692.00;;;-1.73;95.22
22605;BME280;11469;49.024;8.246;2023-04-06T04:28:09;100692.56;;;-1.71;95.01
22605;BME280;11469;49.024;8.246;2023-04-06T04:30:34;100699.16;;;-1.67;94.88
22605;BME280;11469;49.024;8.246;2023-04-06T04:33:00;100688.16;;;-1.67;94.55
22605;BME280;11469;49.024;8.246;2023-04-06T04:35:26;100700.00;;;-1.67;94.49
22605;BME280;11469;49.024;8.246;2023-04-06T04:37:52;100694.50;;;-1.67;94.16
22605;BME280;11469;49.024;8.246;2023-04-06T04:40:17;100703.56;;;-1.66;94.43
22605;BME280;11469;49.024;8.246;2023-04-06T04:42:42;100701.91;;;-1.67;94.34
22605;BME280;11469;49.024;8.246;2023-04-06T04:45:08;100699.16;;;-1.67;94.11
22605;BME280;11469;49.024;8.246;2023-04-06T04:47:33;100697.50;;;-1.68;94.35
22605;BME280;11469;49.024;8.246;2023-04-06T04:49:59;100695.84;;;-1.69;94.14
22605;BME280;11469;49.024;8.246;2023-04-06T04:52:24;100700.53;;;-1.70;93.78
22605;BME280;11469;49.024;8.246;2023-04-06T04:54:50;100701.34;;;-1.69;93.95
22605;BME280;11469;49.024;8.246;2023-04-06T04:57:15;100702.19;;;-1.69;93.98
22605;BME280;11469;49.024;8.246;2023-04-06T04:59:42;100702.47;;;-1.65;93.78
22605;BME280;11469;49.024;8.246;2023-04-06T05:02:08;100707.41;;;-1.62;93.71
22605;BME280;11469;49.024;8.246;2023-04-06T05:04:35;100707.41;;;-1.62;93.46
22605;BME280;11469;49.024;8.246;2023-04-06T05:07:07;100707.69;;;-1.63;93.51
22605;BME280;11469;49.024;8.246;2023-04-06T05:09:33;100700.00;;;-1.61;93.34
22605;BME280;11469;49.024;8.246;2023-04-06T05:11:59;100711.53;;;-1.59;93.54
22605;BME280;11469;49.024;8.246;2023-04-06T05:14:26;100709.63;;;-1.64;93.65
22605;BME280;11469;49.024;8.246;2023-04-06T05:16:51;100712.09;;;-1.62;93.34
22605;BME280;11469;49.024;8.246;2023-04-06T05:19:17;100710.44;;;-1.63;93.27
22605;BME280;11469;49.024;8.246;2023-04-06T05:21:42;100718.69;;;-1.63;93.02
22605;BME280;11469;49.024;8.246;2023-04-06T05:24:08;100723.63;;;-1.60;93.31
22605;BME280;11469;49.024;8.246;2023-04-06T05:26:33;100720.63;;;-1.59;93.51
22605;BME280;11469;49.024;8.246;2023-04-06T05:28:59;100731.63;;;-1.54;93.65
22605;BME280;11469;49.024;8.246;2023-04-06T05:31:25;100730.25;;;-1.51;93.81
22605;BME280;11469;49.024;8.246;2023-04-06T05:33:50;100726.69;;;-1.47;93.60
22605;BME280;11469;49.024;8.246;2023-04-06T05:36:15;100720.63;;;-1.44;93.68
22605;BME280;11469;49.024;8.246;2023-04-06T05:38:41;100724.47;;;-1.40;93.90
22605;BME280;11469;49.024;8.246;2023-04-06T05:41:06;100728.31;;;-1.30;93.91
22605;BME280;11469;49.024;8.246;2023-04-06T05:43:32;100723.91;;;-1.21;94.23
22605;BME280;11469;49.024;8.246;2023-04-06T05:45:57;100721.44;;;-1.13;94.56
22605;BME280;11469;49.024;8.246;2023-04-06T05:48:22;100733.53;;;-1.04;94.72
22605;BME280;11469;49.024;8.246;2023-04-06T05:50:49;100728.81;;;-0.93;95.01
22605;BME280;11469;49.024;8.246;2023-04-06T05:53:15;100727.97;;;-0.83;94.63
22605;BME280;11469;49.024;8.246;2023-04-06T05:55:41;100732.38;;;-0.72;94.71
22605;BME280;11469;49.024;8.246;2023-04-06T05:58:06;100717.75;;;-0.62;94.79
22605;BME280;11469;49.024;8.246;2023-04-06T06:00:31;100728.47;;;-0.51;94.46
22605;BME280;11469;49.024;8.246;2023-04-06T06:02:57;100735.03;;;-0.42;94.39
22605;BME280;11469;49.024;8.246;2023-04-06T06:05:23;100728.94;;;-0.34;94.20
22605;BME280;11469;49.024;8.246;2023-04-06T06:07:48;100720.09;;;-0.25;94.23
22605;BME280;11469;49.024;8.246;2023-04-06T06:10:14;100729.69;;;-0.13;94.09
22605;BME280;11469;49.024;8.246;2023-04-06T06:12:39;100720.81;;;-0.05;94.07
22605;BME280;11469;49.024;8.246;2023-04-06T06:15:05;100717.91;;;0.21;95.09
22605;BME280;11469;49.024;8.246;2023-04-06T06:17:31;100721.81;;;0.54;95.92
22605;BME280;11469;49.024;8.246;2023-04-06T06:19:57;100719.94;;;0.83;95.21
22605;BME280;11469;49.024;8.246;2023-04-06T06:22:23;100729.03;;;1.13;94.49
22605;BME280;11469;49.024;8.246;2023-04-06T06:24:48;100722.41;;;1.38;92.15
22605;BME280;11469;49.024;8.246;2023-04-06T06:27:15;100726.53;;;1.64;91.81
22605;BME280;11469;49.024;8.246;2023-04-06T06:29:41;100730.31;;;1.92;91.57
22605;BME280;11469;49.024;8.246;2023-04-06T06:32:06;100735.13;;;2.05;88.25
22605;BME280;11469;49.024;8.246;2023-04-06T06:34:34;100733.81;;;2.21;87.98
22605;BME280;11469;49.024;8.246;2023-04-06T06:37:00;100728.94;;;2.32;86.69
22605;BME280;11469;49.024;8.246;2023-04-06T06:39:27;100729.22;;;2.49;86.49
22605;BME280;11469;49.024;8.246;2023-04-06T06:41:52;100725.69;;;2.62;86.24
22605;BME280;11469;49.024;8.246;2023-04-06T06:44:19;100730.00;;;2.87;86.08
22605;BME280;11469;49.024;8.246;2023-04-06T06:46:44;100731.16;;;3.00;84.69
22605;BME280;11469;49.024;8.246;2023-04-06T06:49:10;100732.84;;;3.15;83.33
22605;BME280;11469;49.024;8.246;2023-04-06T06:51:37;100739.94;;;3.21;82.78
22605;BME280;11469;49.024;8.246;2023-04-06T06:54:03;100736.56;;;3.24;82.38
22605;BME280;11469;49.024;8.246;2023-04-06T06:56:28;100736.34;;;3.34;81.52
22605;BME280;11469;49.024;8.246;2023-04-06T06:58:54;100730.28;;;3.32;82.01
22605;BME280;11469;49.024;8.246;2023-04-06T07:01:19;100729.38;;;3.37;81.92
22605;BME280;11469;49.024;8.246;2023-04-06T07:03:45;100732.47;;;3.35;81.85
22605;BME280;11469;49.024;8.246;2023-04-06T07:06:10;100728.16;;;3.43;82.19
22605;BME280;11469;49.024;8.246;2023-04-06T07:08:36;100721.81;;;3.56;82.43
22605;BME280;11469;49.024;8.246;2023-04-06T07:11:01;100725.00;;;3.77;81.42
22605;BME280;11469;49.024;8.246;2023-04-06T07:13:27;100723.13;;;3.86;80.54
22605;BME280;11469;49.024;8.246;2023-04-06T07:15:53;100722.81;;;4.01;79.39
22605;BME280;11469;49.024;8.246;2023-04-06T07:18:18;100718.28;;;4.19;78.44
22605;BME280;11469;49.024;8.246;2023-04-06T07:20:45;100730.75;;;4.30;77.09
22605;BME280;11469;49.024;8.246;2023-04-06T07:23:10;100723.88;;;4.27;75.11
22605;BME280;11469;49.024;8.246;2023-04-06T07:25:36;100730.22;;;4.42;75.17
22605;BME280;11469;49.024;8.246;2023-04-06T07:28:02;100725.00;;;4.40;74.80
22605;BME280;11469;49.024;8.246;2023-04-06T07:30:28;100719.22;;;4.50;73.87
22605;BME280;11469;49.024;8.246;2023-04-06T07:32:54;100724.00;;;4.58;73.42
22605;BME280;11469;49.024;8.246;2023-04-06T07:35:24;100721.19;;;4.72;73.86
22605;BME280;11469;49.024;8.246;2023-04-06T07:37:51;100717.19;;;4.87;72.05
22605;BME280;11469;49.024;8.246;2023-04-06T07:40:16;100734.44;;;4.97;71.88
22605;BME280;11469;49.024;8.246;2023-04-06T07:42:42;100726.16;;;5.06;69.50
22605;BME280;11469;49.024;8.246;2023-04-06T07:45:07;100724.44;;;5.19;68.56
22605;BME280;11469;49.024;8.246;2023-04-06T07:47:33;100721.41;;;5.38;68.66
22605;BME280;11469;49.024;8.246;2023-04-06T07:49:58;100735.91;;;5.57;67.77
22605;BME280;11469;49.024;8.246;2023-04-06T07:52:24;100724.19;;;5.77;66.03
22605;BME280;11469;49.024;8.246;2023-04-06T07:54:50;100732.91;;;5.84;65.67
22605;BME280;11469;49.024;8.246;2023-04-06T07:57:15;100720.00;;;5.88;64.43
22605;BME280;11469;49.024;8.246;2023-04-06T07:59:40;100726.25;;;5.94;64.29
22605;BME280;11469;49.024;8.246;2023-04-06T08:02:06;100720.72;;;6.03;63.02
22605;BME280;11469;49.024;8.246;2023-04-06T08:04:31;100723.53;;;6.20;62.88
22605;BME280;11469;49.024;8.246;2023-04-06T08:06:57;100726.16;;;6.33;62.39
22605;BME280;11469;49.024;8.246;2023-04-06T08:09:22;100727.81;;;6.43;60.78
22605;BME280;11469;49.024;8.246;2023-04-06T08:11:48;100728.50;;;6.49;60.77
22605;BME280;11469;49.024;8.246;2023-04-06T08:14:14;100722.25;;;6.52;60.71
22605;BME280;11469;49.024;8.246;2023-04-06T08:16:41;100718.81;;;6.63;60.91
22605;BME280;11469;49.024;8.246;2023-04-06T08:19:06;100724.06;;;6.74;60.69
22605;BME280;11469;49.024;8.246;2023-04-06T08:21:36;100719.78;;;6.76;60.40
22605;BME280;11469;49.024;8.246;2023-04-06T08:24:02;100718.63;;;6.94;58.40
22605;BME280;11469;49.024;8.246;2023-04-06T08:26:27;100731.09;;;7.06;57.35
22605;BME280;11469;49.024;8.246;2023-04-06T08:28:53;100732.53;;;7.12;57.09
22605;BME280;11469;49.024;8.246;2023-04-06T08:31:19;100725.47;;;7.14;57.49
22605;BME280;11469;49.024;8.246;2023-04-06T08:33:44;100724.66;;;7.14;56.94
22605;BME280;11469;49.024;8.246;2023-04-06T08:36:11;100717.91;;;7.32;56.85
22605;BME280;11469;49.024;8.246;2023-04-06T08:38:37;100718.03;;;7.44;56.72
22605;BME280;11469;49.024;8.246;2023-04-06T08:41:07;100717.66;;;7.54;56.93
22605;BME280;11469;49.024;8.246;2023-04-06T08:43:36;100720.22;;;7.68;56.64
22605;BME280;11469;49.024;8.246;2023-04-06T08:46:04;100714.41;;;7.82;55.49
22605;BME280;11469;49.024;8.246;2023-04-06T08:48:30;100717.03;;;7.87;55.58
22605;BME280;11469;49.024;8.246;2023-04-06T08:50:55;100715.06;;;7.87;54.61
22605;BME280;11469;49.024;8.246;2023-04-06T08:53:21;100706.97;;;7.94;55.05
22605;BME280;11469;49.024;8.246;2023-04-06T08:55:46;100715.50;;;8.19;55.15
22605;BME280;11469;49.024;8.246;2023-04-06T08:58:13;100713.06;;;8.47;55.93
22605;BME280;11469;49.024;8.246;2023-04-06T09:00:39;100712.97;;;8.55;54.23
22605;BME280;11469;49.024;8.246;2023-04-06T09:03:05;100708.13;;;8.64;54.01
22605;BME280;11469;49.024;8.246;2023-04-06T09:05:31;100708.19;;;8.56;53.32
22605;BME280;11469;49.024;8.246;2023-04-06T09:07:57;100705.81;;;8.67;54.25
22605;BME280;11469;49.024;8.246;2023-04-06T09:10:22;100705.53;;;8.80;53.87
22605;BME280;11469;49.024;8.246;2023-04-06T09:12:50;100701.66;;;9.06;53.64
22605;BME280;11469;49.024;8.246;2023-04-06T09:15:20;100704.97;;;9.20;53.88
22605;BME280;11469;49.024;8.246;2023-04-06T09:17:46;100704.34;;;9.35;52.92
22605;BME280;11469;49.024;8.246;2023-04-06T09:20:11;100706.22;;;9.55;51.97
22605;BME280;11469;49.024;8.246;2023-04-06T09:22:40;100702.28;;;9.69;52.79
22605;BME280;11469;49.024;8.246;2023-04-06T09:25:06;100694.09;;;9.63;51.53
22605;BME280;11469;49.024;8.246;2023-04-06T09:27:38;100697.59;;;9.73;50.72
22605;BME280;11469;49.024;8.246;2023-04-06T09:30:10;100693.88;;;9.81;51.30
22605;BME280;11469;49.024;8.246;2023-04-06T09:32:46;100692.16;;;9.88;50.21
22605;BME280;11469;49.024;8.246;2023-04-06T09:35:13;100690.47;;;9.99;51.10
22605;BME280;11469;49.024;8.246;2023-04-06T09:37:38;100688.75;;;10.19;50.91
22605;BME280;11469;49.024;8.246;2023-04-06T09:40:04;100692.25;;;10.28;50.84
22605;BME280;11469;49.024;8.246;2023-04-06T09:42:31;100685.72;;;10.24;49.92
22605;BME280;11469;49.024;8.246;2023-04-06T09:44:56;100700.41;;;10.34;50.11
22605;BME280;11469;49.024;8.246;2023-04-06T09:47:22;100689.41;;;10.16;50.17
22605;BME280;11469;49.024;8.246;2023-04-06T09:49:50;100696.53;;;10.14;50.34
22605;BME280;11469;49.024;8.246;2023-04-06T09:52:16;100688.16;;;10.26;49.29
22605;BME280;11469;49.024;8.246;2023-04-06T09:54:43;100682.53;;;10.38;49.33
22605;BME280;11469;49.024;8.246;2023-04-06T09:57:24;100678.00;;;10.34;46.45
22605;BME280;11469;49.024;8.246;2023-04-06T10:02:51;100677.72;;;10.79;46.43
22605;BME280;11469;49.024;8.246;2023-04-06T10:08:11;100687.88;;;11.27;45.12
22605;BME280;11469;49.024;8.246;2023-04-06T10:10:37;100680.44;;;11.35;45.13
22605;BME280;11469;49.024;8.246;2023-04-06T10:13:07;100686.53;;;11.37;44.48
22605;BME280;11469;49.024;8.246;2023-04-06T10:15:33;100680.66;;;11.26;44.86
22605;BME280;11469;49.024;8.246;2023-04-06T10:17:59;100687.44;;;11.41;45.70
22605;BME280;11469;49.024;8.246;2023-04-06T10:20:55;100677.47;;;11.43;43.96
22605;BME280;11469;49.024;8.246;2023-04-06T10:25:57;100675.59;;;11.63;44.42
22605;BME280;11469;49.024;8.246;2023-04-06T10:28:23;100669.59;;;11.49;42.10
22605;BME280;11469;49.024;8.246;2023-04-06T10:30:56;100672.41;;;11.49;42.77
22605;BME280;11469;49.024;8.246;2023-04-06T10:33:22;100676.59;;;11.55;43.51
22605;BME280;11469;49.024;8.246;2023-04-06T10:35:47;100675.63;;;11.79;43.76
22605;BME280;11469;49.024;8.246;2023-04-06T10:38:13;100670.97;;;11.86;42.77
22605;BME280;11469;49.024;8.246;2023-04-06T10:40:40;100671.97;;;11.94;42.99
22605;BME280;11469;49.024;8.246;2023-04-06T10:43:19;100676.31;;;12.07;41.94
22605;BME280;11469;49.024;8.246;2023-04-06T10:45:54;100660.00;;;12.32;38.55
22605;BME280;11469;49.024;8.246;2023-04-06T10:48:20;100658.94;;;12.56;39.96
22605;BME280;11469;49.024;8.246;2023-04-06T10:50:48;100654.88;;;12.73;38.07
22605;BME280;11469;49.024;8.246;2023-04-06T10:53:24;100656.19;;;12.79;39.38
22605;BME280;11469;49.024;8.246;2023-04-06T10:55:51;100647.38;;;12.80;40.23
22605;BME280;11469;49.024;8.246;2023-04-06T10:58:17;100649.75;;;12.78;38.26
22605;BME280;11469;49.024;8.246;2023-04-06T11:00:45;100651.97;;;12.88;38.73
22605;BME280;11469;49.024;8.246;2023-04-06T11:03:10;100635.38;;;13.03;37.16
22605;BME280;11469;49.024;8.246;2023-04-06T11:05:36;100642.28;;;13.28;37.52
22605;BME280;11469;49.024;8.246;2023-04-06T11:08:01;100642.31;;;13.51;36.54
22605;BME280;11469;49.024;8.246;2023-04-06T11:10:27;100639.09;;;13.52;38.04
22605;BME280;11469;49.024;8.246;2023-04-06T11:12:56;100633.34;;;13.68;37.30
22605;BME280;11469;49.024;8.246;2023-04-06T11:15:22;100635.78;;;13.70;35.42
22605;BME280;11469;49.024;8.246;2023-04-06T11:17:48;100629.13;;;13.81;37.13
22605;BME280;11469;49.024;8.246;2023-04-06T11:20:14;100623.28;;;13.67;37.93
22605;BME280;11469;49.024;8.246;2023-04-06T11:22:52;100624.16;;;13.75;37.02
22605;BME280;11469;49.024;8.246;2023-04-06T11:25:18;100625.28;;;13.93;37.81
22605;BME280;11469;49.024;8.246;2023-04-06T11:27:45;100616.22;;;13.80;37.00
22605;BME280;11469;49.024;8.246;2023-04-06T11:30:11;100612.94;;;14.01;37.26
22605;BME280;11469;49.024;8.246;2023-04-06T11:32:44;100608.38;;;13.93;36.04
22605;BME280;11469;49.024;8.246;2023-04-06T11:35:23;100604.56;;;13.82;35.54
22605;BME280;11469;49.024;8.246;2023-04-06T11:37:49;100611.13;;;13.89;35.47
22605;BME280;11469;49.024;8.246;2023-04-06T11:40:15;100593.97;;;13.98;34.38
22605;BME280;11469;49.024;8.246;2023-04-06T11:42:52;100592.81;;;14.03;34.08
22605;BME280;11469;49.024;8.246;2023-04-06T11:45:17;100593.31;;;14.08;33.11
22605;BME280;11469;49.024;8.246;2023-04-06T11:47:43;100589.53;;;14.27;33.41
22605;BME280;11469;49.024;8.246;2023-04-06T11:50:10;100591.56;;;14.30;34.01
22605;BME280;11469;49.024;8.246;2023-04-06T11:52:37;100586.97;;;14.45;33.42
22605;BME280;11469;49.024;8.246;2023-04-06T11:55:14;100584.66;;;14.24;32.32
22605;BME280;11469;49.024;8.246;2023-04-06T11:57:41;100583.13;;;14.30;32.82
22605;BME280;11469;49.024;8.246;2023-04-06T12:00:08;100583.78;;;14.46;31.69
22605;BME280;11469;49.024;8.246;2023-04-06T12:02:35;100580.75;;;14.62;31.13
22605;BME280;11469;49.024;8.246;2023-04-06T12:05:02;100582.66;;;14.54;30.51
22605;BME280;11469;49.024;8.246;2023-04-06T12:07:29;100581.09;;;14.57;29.50
22605;BME280;11469;49.024;8.246;2023-04-06T12:09:54;100582.44;;;14.70;31.42
22605;BME280;11469;49.024;8.246;2023-04-06T12:12:20;100575.44;;;14.57;30.48
22605;BME280;11469;49.024;8.246;2023-04-06T12:14:45;100574.72;;;14.67;30.54
22605;BME280;11469;49.024;8.246;2023-04-06T12:17:11;100574.72;;;14.67;29.19
22605;BME280;11469;49.024;8.246;2023-04-06T12:19:36;100577.22;;;14.72;29.76
22605;BME280;11469;49.024;8.246;2023-04-06T12:22:01;100575.25;;;14.76;29.61
22605;BME280;11469;49.024;8.246;2023-04-06T12:24:28;100565.31;;;14.89;30.12
22605;BME280;11469;49.024;8.246;2023-04-06T12:26:53;100573.06;;;14.96;29.99
22605;BME280;11469;49.024;8.246;2023-04-06T12:29:19;100570.22;;;14.96;29.25
22605;BME280;11469;49.024;8.246;2023-04-06T12:31:45;100569.84;;;14.98;29.28
22605;BME280;11469;49.024;8.246;2023-04-06T12:34:10;100562.03;;;14.84;27.92
22605;BME280;11469;49.024;8.246;2023-04-06T12:36:37;100559.38;;;14.98;28.59
22605;BME280;11469;49.024;8.246;2023-04-06T12:39:02;100554.88;;;14.93;28.69
22605;BME280;11469;49.024;8.246;2023-04-06T12:41:28;100564.38;;;15.19;28.62
22605;BME280;11469;49.024;8.246;2023-04-06T12:43:54;100551.16;;;15.26;28.27
22605;BME280;11469;49.024;8.246;2023-04-06T12:46:20;100556.81;;;15.30;28.86
22605;BME280;11469;49.024;8.246;2023-04-06T12:48:45;100553.19;;;15.30;28.19
22605;BME280;11469;49.024;8.246;2023-04-06T12:51:11;100547.91;;;15.24;28.13
22605;BME280;11469;49.024;8.246;2023-04-06T12:53:36;100545.88;;;15.25;29.09
22605;BME280;11469;49.024;8.246;2023-04-06T12:56:02;100543.84;;;15.22;28.97